createdAt,value
2022-11-23T00:16:57.213Z,93.80
2022-11-23T00:19:26.597Z,94.30
2022-11-23T00:27:47.460Z,93.80
2022-11-23T00:30:16.390Z,93.90
2022-11-23T00:37:46.510Z,93.80
2022-11-23T00:40:14.346Z,93.70
2022-11-23T00:42:42.142Z,93.70
2022-11-23T00:45:13.986Z,93.70
2022-11-23T00:47:42.949Z,93.60
2022-11-23T00:50:11.152Z,93.60
2022-11-23T00:52:39.210Z,93.60
2022-11-23T00:55:10.383Z,93.60
2022-11-23T00:57:39.321Z,93.60
2022-11-23T01:00:11.125Z,93.50
2022-11-23T01:02:44.752Z,93.60
2022-11-23T01:07:42.185Z,93.50
2022-11-23T01:10:12.190Z,93.50
2022-11-23T01:12:40.046Z,93.50
2022-11-23T01:15:11.061Z,93.40
2022-11-23T01:17:40.238Z,93.50
2022-11-23T01:20:10.078Z,93.50
2022-11-23T03:04:12.101Z,93.10
2022-11-23T03:06:39.950Z,93.30
2022-11-23T03:09:08.097Z,93.20
2022-11-23T03:11:35.897Z,93.10
2022-11-23T03:26:26.139Z,92.60
2022-11-23T04:00:30.082Z,92.40
2022-11-23T04:05:38.602Z,92.50
2022-11-23T04:09:57.240Z,92.50
2022-11-23T04:13:58.879Z,92.60
2022-11-23T04:23:54.229Z,92.40
2022-11-23T04:26:21.974Z,92.80
2022-11-23T04:35:41.770Z,92.30
2022-11-23T04:42:51.864Z,92.00
2022-11-23T04:45:19.649Z,92.30
2022-11-23T04:52:01.991Z,92.10
2022-11-23T04:58:15.981Z,92.10
2022-11-23T05:27:14.677Z,92.10
2022-11-23T05:35:49.221Z,92.30
2022-11-23T05:38:19.429Z,92.70
2022-11-23T06:09:20.717Z,92.40
2022-11-23T06:18:07.829Z,92.30
2022-11-23T06:24:03.166Z,92.10
2022-11-23T06:26:31.009Z,92.70
2022-11-23T07:27:20.400Z,91.60
2022-11-23T07:29:48.254Z,91.60
2022-11-23T07:32:16.072Z,91.60
2022-11-23T07:34:43.821Z,91.70
2022-11-23T07:37:11.606Z,91.80
2022-11-23T07:39:56.830Z,91.80
2022-11-23T08:03:25.497Z,92.20
2022-11-23T08:05:41.699Z,92.60
2022-11-23T08:08:09.569Z,92.40
2022-11-23T08:10:43.430Z,92.20
2022-11-23T08:13:12.967Z,92.10
2022-11-23T08:15:40.678Z,92.00
2022-11-23T08:18:10.897Z,91.70
2022-11-23T08:20:38.768Z,91.80
2022-11-23T08:23:06.544Z,91.80
2022-11-23T08:28:29.674Z,91.40
2022-11-23T08:32:08.368Z,91.40
2022-11-23T08:43:57.857Z,91.90
2022-11-23T08:53:24.457Z,91.20
2022-11-23T09:25:02.416Z,90.50
2022-11-23T10:02:44.306Z,88.70
2022-11-23T10:11:22.083Z,88.70
2022-11-23T10:13:58.783Z,88.80
2022-11-23T10:31:02.235Z,86.80
2022-11-23T10:33:32.590Z,87.60
2022-11-23T10:36:14.529Z,86.90
2022-11-23T10:49:36.811Z,86.40
2022-11-23T10:52:29.226Z,87.20
2022-11-23T10:54:59.403Z,87.70
2022-11-23T10:57:37.075Z,87.40
2022-11-23T11:00:20.643Z,87.10
2022-11-23T11:05:46.271Z,85.90
2022-11-23T11:08:16.886Z,86.40
2022-11-23T11:12:33.286Z,86.10
2022-11-23T11:17:02.019Z,86.10
2022-11-23T11:21:22.090Z,86.00
2022-11-23T11:23:59.111Z,86.60
2022-11-23T11:26:30.241Z,86.30
2022-11-23T11:29:02.868Z,86.20
2022-11-23T11:31:48.488Z,86.20
2022-11-23T11:34:22.486Z,85.90
2022-11-23T11:36:59.583Z,86.00
2022-11-23T11:39:35.487Z,85.90
2022-11-23T11:42:08.075Z,86.00
2022-11-23T11:44:41.377Z,86.00
2022-11-23T11:47:23.561Z,85.80
2022-11-23T11:49:53.218Z,85.50
2022-11-23T11:53:41.170Z,84.90
2022-11-23T11:56:17.590Z,85.50
2022-11-23T11:58:52.417Z,85.60
2022-11-23T12:01:28.188Z,85.40
2022-11-23T12:04:02.486Z,85.50
2022-11-23T12:06:36.162Z,85.40
2022-11-23T12:09:14.620Z,85.30
2022-11-23T12:11:49.211Z,85.10
2022-11-23T12:14:22.331Z,84.60
2022-11-23T12:17:24.716Z,86.60
2022-11-23T12:19:56.291Z,86.30
2022-11-23T12:24:06.030Z,84.70
2022-11-23T12:26:46.504Z,84.50
2022-11-23T12:29:31.591Z,84.40
2022-11-23T12:32:09.927Z,84.40
2022-11-23T12:34:54.988Z,84.30
2022-11-23T12:37:42.526Z,83.80
2022-11-23T12:42:04.998Z,83.30
2022-11-23T12:45:02.046Z,83.70
2022-11-23T12:50:25.729Z,83.10
2022-11-23T12:53:44.616Z,82.60
2022-11-23T12:57:01.447Z,82.60
2022-11-23T12:59:55.301Z,82.30
2022-11-23T13:02:52.451Z,83.20
2022-11-23T13:06:02.615Z,82.80
2022-11-23T13:13:09.844Z,82.20
2022-11-23T13:16:02.564Z,82.40
2022-11-23T13:18:45.418Z,82.60
2022-11-23T13:22:16.068Z,82.00
2022-11-23T13:25:23.202Z,82.40
2022-11-23T13:28:00.966Z,81.90
2022-11-23T13:31:37.246Z,81.90
2022-11-23T13:34:39.979Z,82.50
2022-11-23T13:37:12.663Z,82.40
2022-11-23T13:40:03.605Z,82.40
2022-11-23T13:42:34.662Z,81.70
2022-11-23T13:45:30.995Z,82.70
2022-11-23T13:48:41.216Z,83.10
2022-11-23T13:52:52.686Z,82.50
2022-11-23T13:55:26.451Z,82.90
2022-11-23T14:00:44.387Z,83.20
2022-11-23T14:06:03.146Z,84.00
2022-11-23T14:09:51.276Z,84.60
2022-11-23T14:12:26.708Z,85.40
2022-11-23T14:15:00.920Z,85.70
2022-11-23T14:18:06.540Z,86.10
2022-11-23T14:21:02.990Z,86.40
2022-11-23T14:23:56.446Z,86.90
2022-11-23T14:29:30.044Z,86.70
2022-11-23T14:36:47.620Z,87.30
2022-11-23T14:39:49.602Z,88.20
2022-11-23T14:42:20.609Z,88.50
2022-11-23T14:44:50.042Z,88.70
2022-11-23T14:47:27.230Z,88.70
2022-11-23T14:50:00.193Z,89.00
2022-11-23T14:52:33.933Z,89.20
2022-11-23T14:55:08.839Z,89.60
2022-11-23T14:57:45.647Z,89.70
2022-11-23T15:00:28.352Z,89.70
2022-11-23T15:04:40.850Z,89.60
2022-11-23T15:07:15.122Z,90.00
2022-11-23T15:09:52.028Z,90.10
2022-11-23T15:12:26.010Z,90.10
2022-11-23T15:14:57.187Z,90.30
2022-11-23T15:17:25.954Z,90.30
2022-11-23T15:19:59.674Z,90.30
2022-11-23T15:23:21.773Z,90.10
2022-11-23T15:25:55.525Z,90.50
2022-11-23T15:28:36.530Z,90.20
2022-11-23T15:31:18.643Z,90.60
2022-11-23T15:36:55.022Z,92.00
2022-11-23T15:39:46.520Z,90.40
2022-11-23T15:42:18.419Z,90.70
2022-11-23T15:44:51.653Z,90.80
2022-11-23T15:47:27.122Z,90.80
2022-11-23T15:51:29.397Z,90.70
2022-11-23T15:54:00.458Z,91.20
2022-11-23T15:56:31.603Z,91.00
2022-11-23T15:59:03.406Z,91.40
2022-11-23T16:01:31.523Z,91.00
2022-11-23T16:04:04.577Z,91.00
2022-11-23T16:06:38.887Z,91.10
2022-11-23T16:10:17.574Z,90.90
2022-11-23T16:12:50.925Z,91.10
2022-11-23T16:15:43.510Z,91.10
2022-11-23T16:18:22.832Z,91.30
2022-11-23T16:22:32.537Z,91.10
2022-11-23T16:25:05.421Z,91.30
2022-11-23T16:28:52.134Z,91.10
2022-11-23T16:31:30.438Z,91.40
2022-11-23T16:33:58.264Z,91.40
2022-11-23T16:36:28.813Z,91.30
2022-11-23T16:39:00.994Z,91.40
2022-11-23T16:41:31.882Z,91.40
2022-11-23T16:44:01.271Z,91.50
2022-11-23T16:47:29.838Z,91.30
2022-11-23T16:50:00.780Z,91.60
2022-11-23T16:56:49.825Z,91.30
2022-11-23T17:00:12.692Z,91.40
2022-11-23T17:02:42.656Z,91.60
2022-11-23T17:05:15.782Z,91.60
2022-11-23T17:07:43.774Z,91.70
2022-11-23T17:11:33.341Z,91.50
2022-11-23T17:14:01.280Z,91.60
2022-11-23T17:16:29.183Z,91.70
2022-11-23T17:18:59.229Z,91.70
2022-11-23T17:24:14.102Z,91.50
2022-11-23T17:26:45.258Z,91.70
2022-11-23T17:30:34.823Z,91.60
2022-11-23T17:33:02.643Z,91.80
2022-11-23T17:35:33.987Z,91.80
2022-11-23T17:38:05.177Z,91.80
2022-11-23T17:40:35.685Z,91.80
2022-11-23T17:43:03.495Z,91.80
2022-11-23T17:45:32.864Z,91.80
2022-11-23T17:48:03.717Z,91.80
2022-11-23T17:52:17.327Z,91.60
2022-11-23T17:54:48.099Z,91.70
2022-11-23T17:57:16.828Z,91.70
2022-11-23T17:59:47.144Z,91.70
2022-11-23T18:02:19.230Z,91.70
2022-11-23T18:06:48.046Z,91.60
2022-11-23T18:09:15.790Z,91.70
2022-11-23T18:11:45.612Z,92.00
2022-11-23T18:14:18.031Z,91.70
2022-11-23T18:16:48.806Z,91.80
2022-11-23T18:19:16.666Z,91.80
2022-11-23T18:21:44.412Z,91.80
2022-11-23T18:24:14.515Z,91.70
2022-11-23T18:26:42.629Z,91.70
2022-11-23T18:29:40.114Z,91.30
2022-11-23T18:32:08.354Z,92.60
2022-11-23T18:35:50.035Z,91.40
2022-11-23T18:38:17.842Z,91.70
2022-11-23T18:44:20.177Z,91.30
2022-11-23T18:46:51.307Z,91.60
2022-11-23T18:49:19.060Z,91.60
2022-11-23T18:51:51.841Z,91.50
2022-11-23T18:54:19.586Z,91.60
2022-11-23T18:56:47.980Z,91.50
2022-11-23T18:59:42.121Z,91.50
2022-11-23T19:04:41.974Z,91.30
2022-11-23T19:07:10.237Z,91.50
2022-11-23T19:09:38.049Z,91.50
2022-11-23T19:12:06.848Z,91.50
2022-11-23T19:15:07.704Z,91.30
2022-11-23T19:17:35.722Z,91.40
2022-11-23T19:20:05.816Z,91.50
2022-11-23T19:23:10.567Z,91.30
2022-11-23T19:25:38.406Z,91.50
2022-11-23T19:28:06.314Z,91.50
2022-11-23T19:30:34.062Z,91.50
2022-11-23T19:33:07.095Z,91.60
2022-11-23T19:35:37.515Z,91.50
2022-11-23T19:38:05.331Z,91.50
2022-11-23T19:40:34.399Z,91.50
2022-11-23T19:43:04.116Z,91.50
2022-11-23T19:45:56.415Z,91.30
2022-11-23T19:48:27.452Z,91.50
2022-11-23T19:50:56.850Z,91.50
2022-11-23T19:54:14.680Z,91.20
2022-11-23T19:57:25.174Z,91.30
2022-11-23T19:59:53.028Z,91.50
2022-11-23T20:02:25.096Z,91.50
2022-11-23T20:04:53.081Z,91.60
2022-11-23T20:10:43.227Z,91.30
2022-11-23T20:13:11.017Z,91.60
2022-11-23T20:15:38.841Z,91.60
2022-11-23T20:19:00.463Z,91.50
2022-11-23T20:21:32.556Z,92.00
2022-11-23T20:25:25.313Z,91.50
2022-11-23T20:30:36.267Z,91.50
2022-11-23T20:38:31.213Z,90.60
2022-11-23T20:40:58.979Z,91.50
2022-11-23T20:43:26.807Z,91.50
2022-11-23T20:47:54.056Z,91.30
2022-11-23T20:52:13.995Z,91.40
2022-11-23T20:54:41.990Z,91.60
2022-11-23T20:57:12.811Z,91.60
2022-11-23T20:59:41.008Z,91.50
2022-11-23T21:02:11.436Z,91.50
2022-11-23T21:04:39.590Z,91.60
2022-11-23T21:13:07.411Z,91.60
2022-11-23T21:17:25.846Z,91.80
2022-11-23T21:19:56.586Z,92.10
2022-11-23T21:23:52.229Z,91.90
2022-11-23T21:26:20.262Z,91.90
2022-11-23T21:28:50.684Z,92.10
2022-11-23T21:31:18.506Z,92.00
2022-11-23T21:33:50.706Z,92.10
2022-11-23T21:36:23.022Z,92.10
2022-11-23T21:41:43.517Z,91.90
2022-11-23T21:46:07.447Z,92.00
2022-11-23T21:48:35.766Z,92.10
2022-11-23T21:52:16.111Z,92.00
2022-11-23T21:54:48.819Z,92.20
2022-11-23T21:58:35.690Z,92.10
2022-11-23T22:01:05.379Z,92.20
2022-11-23T22:03:56.022Z,92.00
2022-11-23T22:06:24.293Z,92.30
2022-11-23T22:08:58.567Z,92.60
2022-11-23T22:11:28.592Z,92.40
2022-11-23T22:13:57.940Z,92.40
2022-11-23T22:23:45.765Z,92.00
2022-11-23T22:29:23.370Z,92.20
2022-11-23T22:33:27.801Z,92.30
2022-11-23T22:37:53.625Z,92.10
2022-11-23T22:56:02.971Z,93.10
2022-11-23T22:58:31.668Z,93.10
2022-11-23T23:01:44.743Z,92.70
2022-11-23T23:04:12.611Z,92.90
2022-11-23T23:07:20.122Z,92.40
2022-11-23T23:09:48.011Z,92.70
2022-11-23T23:21:10.590Z,92.10
2022-11-23T23:23:38.911Z,92.30
2022-11-23T23:49:10.345Z,92.20
2022-11-23T23:51:40.710Z,92.50
